Culdrose, United Kingdom

11:43 AM GMT on December 05, 2016 (GMT +0000)
Brill | | Change Station

Elev 420 ft 50.12 °N, 5.19 °W | Updated 11 seconds ago

Mostly Cloudy
Mostly Cloudy
55.0 °F
Feels Like 55.0 °F
N
1.3
Wind Variable Wind from SE
Gusts 4.9 mph

Today
High -- | Low -- °F
--% Chance of Precip.
Yesterday
High -- | Low -- °F
Precip. -- in
Pressure 30.09 in
Visibility 6.2 miles
Clouds Scattered Clouds 1000 ft
Mostly Cloudy 1700 ft
Dew Point 54 °F
Humidity 97%
Rainfall 0.00 in
Snow Depth Not available.
8:03 AM 4:19 PM
Waxing Crescent, 31% visible
METAR EGHE 051120Z 14009KT 9999 SCT010 BKN017 11/10 Q1019
Pressure 30.09 in
Visibility 6.2 miles
Clouds Scattered Clouds 1000 ft
Mostly Cloudy 1700 ft
Dew Point 54 °F
Humidity 97%
Rainfall 0.00 in
Snow Depth Not available.
8:03 AM 4:19 PM
Waxing Crescent, 31% visible
METAR EGHE 051120Z 14009KT 9999 SCT010 BKN017 11/10 Q1019

10-Day Weather Forecast

×

Almanac

Astronomy

Dec. 05, 2016 Rise Set
Actual Time
Civil Twilight
Nautical Twilight
Astronomical Twilight
Moon
Length of Visible Light
Length of Day
Tomorrow will be .
, % of the Moon is Illuminated

Today's Extremes

Country Highs Country Lows

Community

WunderPhotos

Upload Photos

1,955,777 photos uploaded!

WunderBlog® & News

Nearby

Air Quality

  Air Quality AQ Index Pollutant
Not available.

Snow Depth

Station Depth Elevation

Earthquake Activity

City Distance Mag. Time & Date
Minimum magnitude displayed is 2.5.

Coastal Water Temperatures

Place Temperature

Stations

Nearby Weather Stations

Station Location Temp. Windchill Dew Point Humidity Wind Precip. Elev Updated Type